Time;durP1;ratioP1;P1;durP2;ratioP2;P2;SDS_P1;SDS_P2;PMS_P1;PMS_P2;Temp;Humidity;BMP_temperature;BMP_pressure;BME280_temperature;BME280_humidity;BME280_pressure;Samples;Min_cycle;Max_cycle;Signal;HPM_P1;HPM_P2
2022/08/17 00:02:07;;;;;;;11.70;10.60;;;21.70;99.90;;;;;;5094406;28;20502;-58
2022/08/17 00:04:34;;;;;;;11.13;10.27;;;21.80;99.90;;;;;;5094643;28;20453;-58
2022/08/17 00:07:00;;;;;;;11.77;10.77;;;21.80;99.90;;;;;;5094462;28;20817;-58
2022/08/17 00:09:27;;;;;;;11.50;10.50;;;21.90;99.90;;;;;;5094210;28;20453;-58
2022/08/17 00:11:55;;;;;;;12.03;10.80;;;22.00;99.90;;;;;;5094686;28;20453;-58
2022/08/17 00:14:22;;;;;;;12.10;11.07;;;22.00;99.90;;;;;;5094359;28;20814;-58
2022/08/17 00:16:52;;;;;;;11.53;10.43;;;22.10;99.90;;;;;;5094300;28;20450;-58
2022/08/17 00:19:22;;;;;;;11.00;10.10;;;22.10;99.90;;;;;;5094250;28;20450;-58
2022/08/17 00:21:50;;;;;;;12.27;11.17;;;22.20;99.90;;;;;;5094059;28;20447;-58
2022/08/17 00:24:18;;;;;;;11.80;10.77;;;22.20;99.90;;;;;;5093983;28;20479;-58
2022/08/17 00:26:45;;;;;;;11.90;11.00;;;22.30;99.90;;;;;;5094157;28;20541;-58
2022/08/17 00:29:14;;;;;;;11.73;10.70;;;22.30;99.90;;;;;;5094082;28;20442;-58
2022/08/17 00:31:40;;;;;;;13.03;11.27;;;22.30;99.90;;;;;;5094071;28;20452;-58
2022/08/17 00:34:08;;;;;;;11.10;10.20;;;22.40;99.90;;;;;;5094211;28;20475;-58
2022/08/17 00:36:35;;;;;;;11.33;10.30;;;22.40;99.90;;;;;;5093777;28;20446;-58
2022/08/17 00:39:01;;;;;;;11.47;10.47;;;22.40;99.90;;;;;;5093998;28;20450;-58
2022/08/17 00:41:28;;;;;;;11.90;11.00;;;22.30;99.90;;;;;;5093748;28;20481;-58
2022/08/17 00:43:57;;;;;;;11.63;10.73;;;22.20;99.90;;;;;;5093401;28;20489;-58
2022/08/17 00:46:27;;;;;;;11.47;10.47;;;22.30;99.90;;;;;;5093698;28;20538;-58
2022/08/17 00:48:55;;;;;;;11.63;10.53;;;22.30;99.90;;;;;;5093398;28;20474;-58
2022/08/17 00:51:30;;;;;;;11.70;10.70;;;22.30;99.90;;;;;;5093793;28;20453;-58
2022/08/17 00:54:03;;;;;;;11.93;10.90;;;22.20;99.90;;;;;;5093790;28;21027;-57
2022/08/17 00:56:33;;;;;;;12.93;12.03;;;21.50;99.90;;;;;;5093544;28;21134;-57
2022/08/17 00:59:02;;;;;;;11.80;10.80;;;20.90;99.90;;;;;;5093508;28;20447;-58
2022/08/17 01:01:31;;;;;;;14.03;12.90;;;20.40;99.90;;;;;;5093356;28;20537;-58
2022/08/17 01:03:58;;;;;;;12.87;11.57;;;20.10;99.90;;;;;;5093491;28;21031;-57
2022/08/17 01:06:24;;;;;;;13.20;12.20;;;19.90;99.90;;;;;;5093452;28;20443;-58
2022/08/17 01:08:53;;;;;;;12.90;12.00;;;19.70;99.90;;;;;;5093453;28;20945;-58
2022/08/17 01:11:20;;;;;;;12.90;11.80;;;19.90;99.90;;;;;;5093336;28;20446;-58
2022/08/17 01:13:47;;;;;;;12.77;11.77;;;20.10;99.90;;;;;;5093179;28;20450;-58
2022/08/17 01:16:18;;;;;;;12.13;11.10;;;20.30;99.90;;;;;;5093294;28;20457;-57
2022/08/17 01:18:51;;;;;;;12.33;11.33;;;20.50;99.90;;;;;;5093587;28;20446;-58
2022/08/17 01:21:26;;;;;;;12.47;11.57;;;20.70;99.90;;;;;;5093259;28;20446;-58
2022/08/17 01:23:54;;;;;;;13.17;12.00;;;20.70;99.90;;;;;;5093129;28;20488;-58
2022/08/17 01:26:22;;;;;;;11.57;10.57;;;20.60;99.90;;;;;;5093119;28;20485;-58
2022/08/17 01:28:49;;;;;;;13.23;12.07;;;20.70;99.90;;;;;;5092969;28;20452;-58
2022/08/17 01:31:15;;;;;;;12.27;11.17;;;20.90;99.90;;;;;;5093140;28;20446;-58
2022/08/17 01:33:42;;;;;;;12.23;11.30;;;21.00;99.90;;;;;;5093105;28;20804;-58
2022/08/17 01:36:09;;;;;;;11.63;10.60;;;21.10;99.90;;;;;;5093030;28;20449;-58
2022/08/17 01:38:36;;;;;;;12.00;10.90;;;21.20;99.90;;;;;;5093064;28;20809;-58
2022/08/17 01:41:08;;;;;;;12.37;11.17;;;21.30;99.90;;;;;;5092767;28;20534;-58
2022/08/17 01:43:39;;;;;;;12.37;11.47;;;21.20;99.90;;;;;;5093005;28;20544;-58
2022/08/17 01:46:06;;;;;;;12.63;11.63;;;21.10;99.90;;;;;;5092839;28;20651;-58
2022/08/17 01:48:35;;;;;;;12.00;11.00;;;20.90;99.90;;;;;;5092837;28;20977;-58
2022/08/17 01:51:03;;;;;;;12.83;11.83;;;20.90;99.90;;;;;;5092886;28;20458;-58
2022/08/17 01:53:34;;;;;;;13.50;12.40;;;20.70;99.90;;;;;;5092733;28;20941;-58
2022/08/17 01:56:06;;;;;;;12.07;11.17;;;20.70;99.90;;;;;;5096926;28;20456;-58
2022/08/17 01:58:34;;;;;;;12.37;11.47;;;20.70;99.90;;;;;;5097070;28;20797;-58
2022/08/17 02:01:00;;;;;;;14.10;12.73;;;20.70;99.90;;;;;;5097009;28;20444;-58
2022/08/17 02:03:27;;;;;;;13.07;11.60;;;20.40;99.90;;;;;;5097056;28;20478;-58
2022/08/17 02:05:54;;;;;;;12.20;11.30;;;20.40;99.90;;;;;;5096809;28;20452;-58
2022/08/17 02:08:21;;;;;;;13.00;12.00;;;20.40;99.90;;;;;;5096689;28;20446;-58
2022/08/17 02:10:50;;;;;;;11.67;10.73;;;20.40;99.90;;;;;;5096847;28;20450;-58
2022/08/17 02:13:18;;;;;;;12.40;11.20;;;20.40;99.90;;;;;;5096709;28;20455;-58
2022/08/17 02:15:45;;;;;;;12.90;11.70;;;20.40;99.90;;;;;;5096608;28;20541;-57
2022/08/17 02:18:12;;;;;;;11.80;10.80;;;20.50;99.90;;;;;;5096548;28;20883;-58
2022/08/17 02:20:41;;;;;;;13.10;11.93;;;20.60;99.90;;;;;;5096434;28;20446;-58
2022/08/17 02:23:08;;;;;;;12.73;11.53;;;20.70;99.90;;;;;;5096539;28;20474;-58
2022/08/17 02:25:36;;;;;;;13.17;11.97;;;20.60;99.90;;;;;;5096742;28;20541;-58
2022/08/17 02:28:04;;;;;;;14.10;12.90;;;20.00;99.90;;;;;;5096440;28;20529;-57
2022/08/17 02:30:32;;;;;;;12.37;11.37;;;19.60;99.90;;;;;;5096335;28;21049;-57
2022/08/17 02:32:58;;;;;;;12.60;11.60;;;19.60;99.90;;;;;;5096209;28;20453;-58
2022/08/17 02:35:25;;;;;;;12.10;10.90;;;19.80;99.90;;;;;;5096193;28;20470;-58
2022/08/17 02:37:51;;;;;;;13.40;11.97;;;19.90;99.90;;;;;;5096272;28;20817;-58
2022/08/17 02:40:20;;;;;;;12.90;11.80;;;20.00;99.90;;;;;;5096217;28;20446;-57
2022/08/17 02:42:48;;;;;;;13.37;12.17;;;19.90;99.90;;;;;;5096039;28;20538;-57
2022/08/17 02:45:19;;;;;;;11.93;11.03;;;19.70;99.90;;;;;;5096048;28;20446;-58
2022/08/17 02:47:46;;;;;;;13.47;12.20;;;19.60;99.90;;;;;;5095212;28;21057;-58
2022/08/17 02:50:15;;;;;;;12.57;11.60;;;19.60;99.90;;;;;;5094835;28;20450;-57
2022/08/17 02:52:44;;;;;;;12.33;11.43;;;19.60;99.90;;;;;;5094756;28;20446;-58
2022/08/17 02:55:14;;;;;;;12.83;11.73;;;19.60;99.90;;;;;;5094639;28;20450;-57
2022/08/17 02:57:41;;;;;;;12.07;11.27;;;19.70;99.90;;;;;;5094509;28;20446;-58
2022/08/17 03:00:11;;;;;;;13.33;12.23;;;19.80;99.90;;;;;;5094485;28;20801;-58
2022/08/17 03:02:38;;;;;;;12.23;11.33;;;20.00;99.90;;;;;;5094415;28;20590;-58
2022/08/17 03:05:07;;;;;;;12.90;11.80;;;20.10;99.90;;;;;;5094115;28;20453;-58
2022/08/17 03:07:33;;;;;;;13.20;11.90;;;19.80;99.90;;;;;;5094644;28;20797;-58
2022/08/17 03:10:00;;;;;;;13.63;12.43;;;19.60;99.90;;;;;;5094553;28;20933;-57
2022/08/17 03:12:31;;;;;;;13.80;12.80;;;19.20;99.90;;;;;;5094305;28;20453;-57
2022/08/17 03:14:58;;;;;;;13.67;12.40;;;19.20;99.90;;;;;;5094309;28;20487;-57
2022/08/17 03:17:24;;;;;;;14.20;13.00;;;19.20;99.90;;;;;;5094242;28;20975;-58
2022/08/17 03:19:51;;;;;;;13.50;12.40;;;19.00;99.90;;;;;;5094664;28;20529;-57
2022/08/17 03:22:19;;;;;;;15.37;13.73;;;19.00;99.90;;;;;;5094739;28;20933;-57
2022/08/17 03:24:45;;;;;;;13.83;12.73;;;19.00;99.90;;;;;;5094629;28;20521;-57
2022/08/17 03:27:12;;;;;;;13.93;12.83;;;19.10;99.90;;;;;;5094301;28;20474;-58
2022/08/17 03:29:40;;;;;;;13.07;11.87;;;19.20;99.90;;;;;;5094379;28;20446;-58
2022/08/17 03:32:14;;;;;;;12.90;11.70;;;19.40;99.90;;;;;;5094404;28;20450;-58
2022/08/17 03:34:41;;;;;;;14.60;13.30;;;19.20;99.90;;;;;;5094641;28;20986;-58
2022/08/17 03:37:08;;;;;;;14.63;13.13;;;19.10;99.90;;;;;;5094293;28;20941;-57
2022/08/17 03:39:35;;;;;;;15.13;13.80;;;19.10;99.90;;;;;;5094119;28;20446;-57
2022/08/17 03:42:08;;;;;;;14.90;13.50;;;19.20;99.90;;;;;;5093916;28;20510;-58
2022/08/17 03:44:35;;;;;;;14.13;12.70;;;19.40;99.90;;;;;;5093997;28;20528;-58
2022/08/17 03:57:59;;;;;;;12.37;11.37;;;20.00;99.90;;;;;;5094928;28;20573;-58
2022/08/17 04:00:26;;;;;;;13.10;12.00;;;20.00;99.90;;;;;;5094617;28;20453;-57
2022/08/17 04:02:53;;;;;;;12.07;11.07;;;20.10;99.90;;;;;;5094562;28;20537;-58
2022/08/17 04:05:19;;;;;;;12.70;11.67;;;20.00;99.90;;;;;;5094827;28;20482;-58
2022/08/17 04:07:46;;;;;;;12.43;11.33;;;20.00;99.90;;;;;;5094524;28;20450;-58
2022/08/17 04:10:14;;;;;;;12.17;10.97;;;20.00;99.90;;;;;;5094674;28;20504;-58
2022/08/17 04:12:44;;;;;;;12.27;11.17;;;20.00;99.90;;;;;;5094324;28;20534;-58
2022/08/17 04:15:12;;;;;;;12.27;11.27;;;20.00;99.90;;;;;;5094392;28;20508;-58
2022/08/17 04:17:38;;;;;;;12.00;10.70;;;20.00;99.90;;;;;;5093823;28;20537;-58
2022/08/17 04:20:06;;;;;;;11.90;10.90;;;20.00;99.90;;;;;;5094736;28;21086;-58
2022/08/17 04:22:32;;;;;;;12.20;11.10;;;19.90;99.90;;;;;;5094308;28;20462;-57
2022/08/17 04:25:00;;;;;;;12.47;11.20;;;19.90;99.90;;;;;;5094158;28;20535;-57
2022/08/17 04:27:28;;;;;;;12.90;11.50;;;19.90;99.90;;;;;;5094235;28;20446;-57
2022/08/17 04:29:54;;;;;;;14.70;11.83;;;19.90;99.90;;;;;;5094056;28;20528;-58
2022/08/17 04:32:21;;;;;;;12.80;11.03;;;19.80;99.90;;;;;;5094415;28;20503;-58
2022/08/17 04:34:48;;;;;;;12.93;11.80;;;19.70;99.90;;;;;;5094194;28;20449;-57
2022/08/17 04:37:15;;;;;;;13.20;12.00;;;19.50;99.90;;;;;;5094184;28;20450;-58
2022/08/17 04:42:05;;;;;;;13.77;12.70;;;19.20;99.90;;;;;;5094011;28;20443;-57
2022/08/17 04:42:29;;;;;;;16.83;13.97;;;19.00;99.90;;;;;;5093846;28;20521;-58
2022/08/17 04:44:55;;;;;;;19.60;17.17;;;19.00;99.90;;;;;;5093907;28;20583;-57
2022/08/17 04:47:22;;;;;;;16.30;14.90;;;18.80;99.90;;;;;;5093951;28;20520;-58
2022/08/17 04:49:49;;;;;;;14.97;13.87;;;18.70;99.90;;;;;;5093777;28;20542;-58
2022/08/17 04:52:15;;;;;;;14.37;13.07;;;18.80;99.90;;;;;;5093995;28;20473;-58
2022/08/17 04:54:42;;;;;;;14.80;13.40;;;18.80;99.90;;;;;;5093828;28;20937;-58
2022/08/17 04:57:08;;;;;;;16.13;14.73;;;18.70;99.90;;;;;;5093957;28;20501;-58
2022/08/17 04:59:36;;;;;;;19.67;15.60;;;18.70;99.90;;;;;;5093842;28;20478;-58
2022/08/17 05:02:03;;;;;;;17.87;16.23;;;18.60;99.90;;;;;;5093672;28;20882;-58
2022/08/17 05:04:29;;;;;;;18.10;16.60;;;18.50;99.90;;;;;;5093598;28;20510;-58
2022/08/17 05:06:56;;;;;;;16.97;15.47;;;18.50;99.90;;;;;;5093539;28;20533;-58
2022/08/17 05:09:22;;;;;;;16.33;14.87;;;18.70;99.90;;;;;;5093373;28;20451;-57
2022/08/17 05:11:49;;;;;;;16.60;15.10;;;18.80;99.90;;;;;;5093440;28;20446;-58
2022/08/17 05:14:15;;;;;;;16.60;15.00;;;19.10;99.90;;;;;;5093510;28;20531;-58
2022/08/17 05:16:47;;;;;;;16.50;14.90;;;19.40;99.90;;;;;;5093484;28;20503;-57
2022/08/17 05:19:13;;;;;;;15.50;14.00;;;19.60;99.90;;;;;;5093403;28;20910;-58
2022/08/17 05:21:41;;;;;;;14.73;13.63;;;20.00;99.90;;;;;;5093413;28;20478;-58
2022/08/17 05:24:08;;;;;;;15.70;14.30;;;20.30;99.90;;;;;;5093266;28;20467;-58
2022/08/17 05:26:34;;;;;;;14.10;12.73;;;20.50;99.90;;;;;;5093460;28;20443;-58
2022/08/17 05:29:01;;;;;;;12.90;11.80;;;20.80;99.90;;;;;;5093357;28;20515;-59
2022/08/17 05:31:29;;;;;;;13.60;12.47;;;21.00;99.90;;;;;;5093239;28;20450;-58
2022/08/17 05:33:57;;;;;;;14.27;12.83;;;21.20;99.90;;;;;;5093318;28;20797;-59
2022/08/17 05:36:24;;;;;;;14.90;13.70;;;21.40;99.90;;;;;;5093207;28;20459;-60
2022/08/17 05:38:50;;;;;;;14.73;13.10;;;21.60;99.90;;;;;;5093018;28;20450;-60
2022/08/17 05:41:17;;;;;;;12.53;11.43;;;21.80;99.90;;;;;;5093099;28;20549;-59
2022/08/17 05:43:43;;;;;;;13.93;12.83;;;22.00;99.90;;;;;;5092996;28;20450;-60
2022/08/17 05:46:18;;;;;;;14.00;12.70;;;22.20;99.90;;;;;;5092670;28;20454;-60
2022/08/17 05:48:47;;;;;;;14.67;13.23;;;22.40;99.90;;;;;;5092987;28;20852;-60
2022/08/17 05:51:29;;;;;;;12.73;11.53;;;22.50;99.90;;;;;;5092786;28;20950;-59
2022/08/17 05:54:06;;;;;;;13.37;12.30;;;22.70;99.90;;;;;;5092891;28;20451;-60
2022/08/17 05:56:49;;;;;;;14.00;12.90;;;22.80;99.90;;;;;;5092956;28;20450;-60
2022/08/17 05:59:22;;;;;;;11.83;10.93;;;22.90;99.90;;;;;;5093158;28;20989;-60
2022/08/17 06:01:56;;;;;;;13.73;12.30;;;23.00;99.90;;;;;;5092773;28;20446;-58
2022/08/17 06:04:30;;;;;;;12.77;11.73;;;23.10;99.90;;;;;;5092589;28;20485;-58
2022/08/17 06:07:06;;;;;;;11.40;10.50;;;23.20;99.90;;;;;;5092807;28;20532;-58
2022/08/17 06:09:39;;;;;;;11.23;10.20;;;23.30;99.90;;;;;;5092847;28;20446;-58
2022/08/17 06:12:21;;;;;;;13.00;11.70;;;23.40;99.90;;;;;;5092517;28;20940;-58
2022/08/17 06:14:58;;;;;;;13.73;12.43;;;23.50;99.90;;;;;;5093129;28;20484;-58
2022/08/17 06:17:26;;;;;;;12.53;11.43;;;23.50;99.90;;;;;;5092829;28;20446;-58
2022/08/17 06:19:57;;;;;;;15.13;13.53;;;23.50;99.90;;;;;;5092768;28;20958;-58
2022/08/17 06:22:29;;;;;;;13.83;12.73;;;23.20;99.90;;;;;;5092589;28;20549;-58
2022/08/17 06:25:00;;;;;;;15.07;12.57;;;23.00;99.90;;;;;;5092804;28;20567;-58
2022/08/17 06:27:34;;;;;;;15.20;13.90;;;22.70;99.90;;;;;;5092599;28;20446;-58
2022/08/17 06:30:07;;;;;;;16.07;14.37;;;22.70;99.90;;;;;;5092664;28;20457;-58
2022/08/17 06:32:35;;;;;;;13.30;11.90;;;22.80;99.90;;;;;;5092476;28;20458;-59
2022/08/17 06:35:03;;;;;;;12.87;11.77;;;23.00;99.90;;;;;;5092600;28;20561;-59
2022/08/17 06:37:58;;;;;;;12.13;11.23;;;23.20;99.90;;;;;;5092870;28;20937;-58
2022/08/17 06:40:51;;;;;;;12.87;11.70;;;23.40;99.90;;;;;;5093761;28;20814;-58
2022/08/17 06:43:32;;;;;;;10.30;9.60;;;23.70;99.90;;;;;;5096094;28;20442;-58
2022/08/17 06:46:05;;;;;;;13.87;12.77;;;24.00;99.90;;;;;;5096233;28;20838;-58
2022/08/17 06:48:38;;;;;;;11.80;10.90;;;24.20;99.90;;;;;;5096390;28;20535;-59
2022/08/17 06:51:13;;;;;;;11.97;10.87;;;24.40;99.90;;;;;;5095862;28;20474;-58
2022/08/17 06:53:47;;;;;;;11.73;10.63;;;24.60;99.90;;;;;;5107280;28;20533;-58
2022/08/17 06:56:24;;;;;;;12.77;11.17;;;24.70;99.90;;;;;;5106399;28;20858;-58
2022/08/17 06:58:55;;;;;;;10.77;9.80;;;24.80;99.90;;;;;;5116149;28;20445;-59
2022/08/17 07:01:28;;;;;;;10.43;9.63;;;24.90;99.90;;;;;;5099762;28;20454;-59
2022/08/17 07:03:59;;;;;;;10.33;9.53;;;25.10;99.90;;;;;;5095574;28;21012;-58
2022/08/17 07:06:38;;;;;;;11.20;10.40;;;25.10;99.90;;;;;;5095716;28;20489;-58
2022/08/17 07:09:09;;;;;;;10.70;9.80;;;25.20;99.90;;;;;;5095629;28;20468;-58
2022/08/17 07:11:39;;;;;;;10.60;8.07;;;25.20;99.90;;;;;;5095240;28;20446;-58
2022/08/17 07:14:18;;;;;;;10.87;9.97;;;25.30;99.90;;;;;;5095528;28;20676;-58
2022/08/17 07:16:49;;;;;;;11.77;10.67;;;25.30;99.90;;;;;;5095498;28;20450;-58
2022/08/17 07:19:18;;;;;;;10.40;9.47;;;25.30;99.90;;;;;;5095541;28;20446;-58
2022/08/17 07:21:53;;;;;;;9.97;9.17;;;25.20;99.90;;;;;;5095536;28;20465;-58
2022/08/17 07:24:31;;;;;;;8.80;7.90;;;25.40;99.90;;;;;;5095372;28;20477;-57
2022/08/17 07:27:07;;;;;;;8.63;8.00;;;25.40;99.90;;;;;;5095404;28;20457;-57
2022/08/17 07:29:39;;;;;;;8.13;7.50;;;25.60;99.90;;;;;;5095378;28;20449;-58
2022/08/17 07:32:07;;;;;;;7.33;6.67;;;25.70;99.90;;;;;;5095270;28;20482;-58
2022/08/17 07:35:07;;;;;;;8.10;7.30;;;25.90;99.90;;;;;;5095140;28;20450;-58
2022/08/17 07:37:35;;;;;;;7.40;6.80;;;26.10;99.90;;;;;;5094784;28;20806;-58
2022/08/17 07:40:16;;;;;;;8.30;7.50;;;26.40;99.90;;;;;;5094888;28;20813;-58
2022/08/17 07:42:42;;;;;;;8.57;7.77;;;26.70;99.90;;;;;;5094795;28;20442;-58
2022/08/17 07:48:17;;;;;;;7.57;6.80;;;27.10;99.90;;;;;;5094506;28;20973;-58
2022/08/17 07:50:40;;;;;;;8.80;8.00;;;27.60;99.90;;;;;;5105891;28;20579;-58
2022/08/17 07:53:17;;;;;;;6.63;6.13;;;27.70;99.90;;;;;;5111575;28;20463;-58
2022/08/17 07:55:45;;;;;;;7.23;6.73;;;27.90;99.90;;;;;;5114857;28;20449;-58
2022/08/17 07:58:16;;;;;;;6.67;5.93;;;28.10;99.90;;;;;;5114796;28;20445;-58
2022/08/17 08:00:43;;;;;;;6.87;6.37;;;28.30;99.90;;;;;;5114802;28;20957;-58
2022/08/17 08:03:20;;;;;;;5.87;5.50;;;28.40;99.90;;;;;;5109773;28;20465;-58
2022/08/17 08:05:53;;;;;;;5.97;5.57;;;28.40;99.90;;;;;;5104260;28;20486;-59
2022/08/17 08:08:28;;;;;;;5.10;4.70;;;28.40;99.90;;;;;;5094693;28;20446;-58
2022/08/17 08:11:02;;;;;;;5.97;4.73;;;28.50;99.90;;;;;;5094583;28;20430;-58
2022/08/17 08:13:31;;;;;;;4.77;4.57;;;28.60;99.90;;;;;;5096641;28;20457;-59
2022/08/17 08:16:24;;;;;;;5.30;4.90;;;28.60;99.90;;;;;;5101007;28;20505;-59
2022/08/17 08:18:53;;;;;;;4.53;4.13;;;28.70;99.90;;;;;;5112994;28;20450;-58
2022/08/17 08:21:36;;;;;;;4.40;4.20;;;28.90;99.90;;;;;;5114240;28;20459;-58
2022/08/17 08:24:18;;;;;;;5.50;5.00;;;28.90;99.90;;;;;;5114635;28;20445;-59
2022/08/17 08:26:52;;;;;;;4.80;4.40;;;29.10;99.90;;;;;;5114387;28;20999;-58
2022/08/17 08:29:28;;;;;;;4.60;4.30;;;29.20;99.90;;;;;;5114327;28;20452;-59
2022/08/17 08:32:03;;;;;;;4.43;4.03;;;29.00;99.90;;;;;;5114615;28;20506;-58
2022/08/17 08:34:38;;;;;;;4.30;4.00;;;29.00;99.90;;;;;;5114186;28;20456;-58
2022/08/17 08:37:15;;;;;;;5.17;4.77;;;29.10;99.90;;;;;;5114327;28;20449;-59
2022/08/17 08:39:49;;;;;;;5.00;4.60;;;29.30;99.90;;;;;;5114274;28;20445;-58
2022/08/17 08:42:23;;;;;;;5.23;4.73;;;29.20;99.90;;;;;;5114214;28;20457;-58
2022/08/17 08:44:59;;;;;;;4.80;4.40;;;29.20;99.90;;;;;;5114202;28;20475;-59
2022/08/17 08:47:40;;;;;;;4.07;3.87;;;29.40;99.90;;;;;;5113928;28;20509;-58
2022/08/17 08:50:18;;;;;;;4.43;4.23;;;29.50;99.90;;;;;;5114034;28;20532;-59
2022/08/17 08:53:02;;;;;;;4.47;4.17;;;29.40;99.90;;;;;;5114096;28;20441;-59
2022/08/17 08:55:36;;;;;;;3.90;3.60;;;29.60;99.90;;;;;;5113982;28;20801;-58
2022/08/17 08:58:09;;;;;;;4.20;3.90;;;29.70;99.90;;;;;;5113661;28;20441;-58
2022/08/17 09:00:40;;;;;;;4.27;3.97;;;29.80;99.90;;;;;;5113818;28;20446;-59
2022/08/17 09:03:18;;;;;;;4.20;3.90;;;29.90;99.80;;;;;;5113436;28;20480;-58
2022/08/17 09:06:07;;;;;;;4.37;4.17;;;29.80;99.50;;;;;;5113558;28;20481;-59
2022/08/17 09:08:47;;;;;;;6.37;4.10;;;29.70;99.90;;;;;;5113577;28;20452;-58
2022/08/17 09:11:23;;;;;;;4.63;3.70;;;30.00;99.90;;;;;;5113436;28;20971;-58
2022/08/17 09:14:02;;;;;;;4.80;4.40;;;30.20;99.00;;;;;;5113640;28;20445;-58
2022/08/17 09:16:34;;;;;;;3.80;3.53;;;30.20;98.70;;;;;;5113511;28;20964;-58
2022/08/17 09:19:07;;;;;;;4.73;4.33;;;30.30;98.40;;;;;;5113591;28;20456;-58
2022/08/17 09:21:40;;;;;;;6.00;4.20;;;30.50;97.70;;;;;;5113296;28;20541;-58
2022/08/17 09:24:11;;;;;;;5.53;4.50;;;30.70;97.00;;;;;;5113834;28;20524;-59
2022/08/17 09:26:45;;;;;;;4.37;3.97;;;30.60;97.10;;;;;;5113463;28;20489;-58
2022/08/17 09:29:16;;;;;;;4.50;4.17;;;30.40;96.90;;;;;;5113508;28;20548;-59
2022/08/17 09:31:48;;;;;;;4.00;3.80;;;30.50;96.70;;;;;;5113313;28;20532;-59
2022/08/17 09:34:20;;;;;;;4.30;4.03;;;30.10;97.20;;;;;;5113341;28;20533;-57
2022/08/17 09:36:51;;;;;;;5.23;4.73;;;30.00;96.00;;;;;;5113082;28;20952;-58
2022/08/17 09:39:27;;;;;;;8.30;3.70;;;30.10;97.20;;;;;;5113476;28;20502;-59
2022/08/17 09:42:02;;;;;;;4.00;3.60;;;30.20;95.10;;;;;;5113375;28;20520;-59
2022/08/17 09:44:37;;;;;;;4.30;3.90;;;30.50;96.70;;;;;;5113158;28;20499;-59
2022/08/17 09:47:10;;;;;;;3.80;3.50;;;30.80;95.30;;;;;;5112993;28;20572;-59
2022/08/17 09:49:42;;;;;;;3.60;3.30;;;30.90;94.20;;;;;;5113080;28;20455;-59
2022/08/17 09:52:21;;;;;;;3.23;3.03;;;30.50;94.70;;;;;;5113127;28;20775;-59
2022/08/17 09:54:50;;;;;;;3.90;2.90;;;30.80;93.20;;;;;;5113402;28;20481;-59
2022/08/17 09:57:28;;;;;;;3.10;2.80;;;31.00;93.20;;;;;;5112922;28;20449;-59
2022/08/17 10:00:17;;;;;;;4.00;3.10;;;31.20;92.80;;;;;;5113310;28;20955;-59
2022/08/17 10:03:03;;;;;;;3.57;3.10;;;31.50;92.30;;;;;;5113055;28;20484;-59
2022/08/17 10:05:37;;;;;;;2.70;2.43;;;31.60;91.20;;;;;;5112846;28;20520;-59
2022/08/17 10:08:12;;;;;;;3.20;2.90;;;31.60;87.60;;;;;;5113354;28;20683;-59
2022/08/17 10:10:47;;;;;;;2.90;2.63;;;31.70;88.60;;;;;;5112938;28;20444;-59
2022/08/17 10:13:28;;;;;;;3.60;2.90;;;32.00;87.00;;;;;;5112898;28;20441;-59
2022/08/17 10:16:03;;;;;;;3.40;3.10;;;32.10;86.20;;;;;;5114892;28;20522;-59
2022/08/17 10:18:38;;;;;;;3.40;3.20;;;31.60;86.50;;;;;;5117088;28;20445;-59
2022/08/17 10:26:57;;;;;;;3.80;3.50;;;31.40;85.80;;;;;;5116694;28;20475;-59
2022/08/17 10:29:28;;;;;;;3.77;3.40;;;31.40;85.80;;;;;;5117053;28;20445;-60
2022/08/17 10:32:03;;;;;;;5.17;3.33;;;31.60;87.00;;;;;;5116838;28;20821;-59
2022/08/17 10:34:52;;;;;;;3.90;3.60;;;31.80;84.20;;;;;;5115908;28;20451;-60
2022/08/17 10:37:58;;;;;;;3.47;3.27;;;32.00;84.60;;;;;;5116760;28;20192;-59
2022/08/17 10:40:34;;;;;;;4.70;3.70;;;31.80;81.30;;;;;;5117007;28;20807;-59
2022/08/17 10:43:21;;;;;;;3.80;3.53;;;31.50;82.90;;;;;;5116413;28;20449;-59
2022/08/17 10:45:54;;;;;;;3.57;3.37;;;31.80;83.90;;;;;;5116040;28;21152;-59
2022/08/17 10:48:29;;;;;;;3.33;3.10;;;32.20;84.10;;;;;;5116307;28;20980;-59
2022/08/17 10:51:01;;;;;;;3.70;3.30;;;32.50;81.40;;;;;;5116314;28;20494;-60
2022/08/17 10:53:57;;;;;;;3.67;3.47;;;32.10;81.00;;;;;;5116409;27;20963;-59
2022/08/17 10:56:39;;;;;;;4.37;3.60;;;31.70;80.70;;;;;;5116359;28;20470;-59
2022/08/17 10:59:06;;;;;;;4.10;3.90;;;31.70;81.30;;;;;;5116114;28;20484;-58
2022/08/17 11:02:02;;;;;;;3.57;3.37;;;31.80;84.10;;;;;;5116012;28;20537;-59
2022/08/17 11:04:46;;;;;;;3.83;3.63;;;31.90;81.50;;;;;;5096072;28;20799;-59
2022/08/17 11:07:26;;;;;;;4.00;3.60;;;31.40;81.10;;;;;;5095487;28;20875;-59
2022/08/17 11:10:24;;;;;;;3.57;3.37;;;31.30;82.30;;;;;;5114833;28;20449;-59
2022/08/17 11:12:59;;;;;;;3.70;3.43;;;31.20;81.50;;;;;;5107595;28;20590;-59
2022/08/17 11:15:40;;;;;;;4.20;3.80;;;31.50;86.90;;;;;;5115951;28;20846;-59
2022/08/17 11:18:41;;;;;;;5.13;4.30;;;31.70;84.20;;;;;;5115733;28;21009;-59
2022/08/17 11:21:29;;;;;;;4.47;3.60;;;31.50;85.60;;;;;;5089527;28;20441;-59
2022/08/17 11:24:16;;;;;;;3.50;3.20;;;31.80;86.20;;;;;;5115640;28;20862;-59
2022/08/17 11:26:47;;;;;;;4.23;3.93;;;32.20;82.80;;;;;;5115071;28;20550;-59
2022/08/17 11:29:22;;;;;;;4.73;4.30;;;32.30;83.20;;;;;;5115649;28;21001;-59
2022/08/17 11:32:01;;;;;;;3.63;3.37;;;32.30;79.80;;;;;;5115623;28;20800;-59
2022/08/17 11:34:30;;;;;;;3.30;3.20;;;32.00;80.00;;;;;;5115569;28;20450;-59
2022/08/17 11:37:20;;;;;;;3.73;3.43;;;31.80;80.10;;;;;;5115491;28;20807;-59
2022/08/17 11:40:18;;;;;;;3.60;3.30;;;31.80;78.90;;;;;;5115699;28;20438;-59
2022/08/17 11:42:59;;;;;;;4.43;3.60;;;31.70;78.40;;;;;;5108664;28;20451;-59
2022/08/17 11:45:54;;;;;;;4.00;3.70;;;31.60;78.70;;;;;;5115271;28;20515;-59
2022/08/17 11:51:33;;;;;;;3.27;3.07;;;31.50;77.80;;;;;;5115273;28;20438;-59
2022/08/17 11:54:31;;;;;;;3.77;3.57;;;31.40;75.60;;;;;;5115236;28;20445;-59
2022/08/17 11:57:01;;;;;;;3.00;2.90;;;31.60;76.70;;;;;;5114734;28;20445;-59
2022/08/17 11:59:57;;;;;;;4.03;3.60;;;32.00;75.80;;;;;;5114993;28;20459;-59
2022/08/17 12:02:47;;;;;;;5.33;3.50;;;32.30;76.50;;;;;;5115277;28;20446;-59
2022/08/17 12:05:31;;;;;;;4.90;3.70;;;32.60;75.20;;;;;;5109954;28;20498;-59
2022/08/17 12:08:10;;;;;;;3.70;3.50;;;32.90;73.80;;;;;;5114874;28;20496;-59
2022/08/17 12:10:47;;;;;;;3.83;3.63;;;33.00;74.30;;;;;;5115159;28;20945;-59
2022/08/17 12:13:17;;;;;;;3.33;3.03;;;33.30;72.40;;;;;;5114864;28;21086;-59
2022/08/17 12:15:48;;;;;;;3.00;2.90;;;33.40;68.60;;;;;;5114666;28;20481;-59
2022/08/17 12:18:20;;;;;;;3.37;3.17;;;32.80;70.20;;;;;;5114624;28;20454;-59
2022/08/17 12:20:59;;;;;;;3.57;3.23;;;32.40;71.20;;;;;;5114440;28;20450;-59
2022/08/17 12:23:32;;;;;;;4.33;3.77;;;32.30;71.60;;;;;;5114538;28;20870;-59
2022/08/17 12:26:04;;;;;;;3.50;3.20;;;32.20;72.10;;;;;;5114437;28;20474;-59
2022/08/17 12:28:35;;;;;;;3.20;3.00;;;32.10;72.10;;;;;;5114300;28;20803;-59
2022/08/17 12:31:04;;;;;;;3.93;3.63;;;31.80;72.80;;;;;;5114238;28;20473;-59
2022/08/17 12:33:30;;;;;;;3.10;2.90;;;31.70;72.60;;;;;;5114467;28;20446;-59
2022/08/17 12:36:01;;;;;;;3.43;3.23;;;31.90;74.10;;;;;;5114356;28;20452;-60
2022/08/17 12:38:28;;;;;;;3.67;3.37;;;32.20;73.50;;;;;;5113835;28;20801;-59
2022/08/17 12:40:58;;;;;;;3.30;3.10;;;32.40;74.50;;;;;;5114138;28;20529;-60
2022/08/17 12:43:29;;;;;;;4.10;3.90;;;32.60;76.20;;;;;;5113798;28;20446;-60
2022/08/17 12:46:02;;;;;;;3.33;3.13;;;32.90;78.00;;;;;;5114297;28;20461;-59
2022/08/17 12:48:30;;;;;;;4.13;3.83;;;33.00;73.10;;;;;;5113783;28;20473;-59
2022/08/17 12:51:00;;;;;;;3.13;3.03;;;33.20;75.70;;;;;;5114038;28;20458;-59
2022/08/17 12:53:29;;;;;;;3.70;3.20;;;33.20;74.40;;;;;;5114427;28;20462;-58
2022/08/17 12:55:57;;;;;;;5.00;3.57;;;33.30;70.70;;;;;;5113661;28;20759;-59
2022/08/17 12:58:26;;;;;;;3.17;3.00;;;33.30;71.00;;;;;;5113551;28;20532;-58
2022/08/17 13:00:59;;;;;;;3.80;3.60;;;33.20;69.60;;;;;;5113592;28;20454;-58
2022/08/17 13:03:30;;;;;;;3.73;3.40;;;33.00;69.60;;;;;;5113858;28;20876;-58
2022/08/17 13:06:00;;;;;;;4.10;3.60;;;33.00;71.60;;;;;;5113646;28;20473;-58
2022/08/17 13:08:30;;;;;;;3.60;3.40;;;32.80;70.40;;;;;;5113633;28;20450;-59
2022/08/17 13:10:59;;;;;;;3.43;3.13;;;32.60;71.20;;;;;;5113486;28;20538;-58
2022/08/17 13:13:27;;;;;;;3.20;3.00;;;32.10;70.90;;;;;;5113531;28;20537;-58
2022/08/17 13:15:56;;;;;;;3.70;3.20;;;32.20;72.20;;;;;;5113483;28;20450;-58
2022/08/17 13:18:41;;;;;;;3.97;3.67;;;32.30;72.40;;;;;;5113378;28;20445;-58
2022/08/17 13:21:17;;;;;;;4.70;3.77;;;32.30;71.10;;;;;;5113212;28;20485;-58
2022/08/17 13:23:58;;;;;;;4.13;3.93;;;32.30;72.20;;;;;;5113327;28;20829;-58
2022/08/17 13:26:29;;;;;;;3.60;3.40;;;32.20;71.10;;;;;;5113503;28;20477;-58